Astor — C6JR3 — position and weather

sailwx.info

Track history (hours):
 
Tides and Currents Weather Stations Pressure Air Temp Water Temp Dewpoint Dewpoint Depression Visibility Wind Speed Wind Dir Waves Ship Positions

Astor

Operator: Passat Ship Management Ltd

Last reported at 2017-Sep-21 23:25 UTC. Time now 2017-Sep-22 06:14 UTC.
Position N 50°21' E 000°17'.

Length 177 m; draft 6.2 m.

Type: Ship. MMSI: 308214000.

Date/timePositionNaut miles runAvg speedWind from/ knotsBaromVisibWave heightAir tempDewpointWater temp
2017-Sep-21 23:25N 50°21' E 000°17'1717.4
2017-Sep-21 22:26N 50°15' W 000°08'106 5.7
2017-Sep-21 03:45N 49°24' W 002°32'413.8
2017-Sep-21 03:27N 49°22' W 002°37'813.4
2017-Sep-21 02:51N 49°21' W 002°50'512.1
2017-Sep-21 02:28N 49°22' W 002°57'511.7
2017-Sep-21 02:00N 49°22' W 003°05'611.5
2017-Sep-21 01:27N 49°21' W 003°15'511.5
2017-Sep-21 01:00N 49°19' W 003°22'611.2
2017-Sep-21 00:29N 49°16' W 003°30'6 8.0
2017-Sep-20 23:44N 49°10' W 003°27'314.3
2017-Sep-20 23:30N 49°11' W 003°22'714.4
2017-Sep-20 23:00N 49°11' W 003°11'714.5
2017-Sep-20 22:31N 49°11' W 003°00'4013.3
2017-Sep-20 19:31N 48°45' W 002°15'013.2
2017-Sep-20 19:29N 48°45' W 002°14'10 2.3
2017-Sep-20 15:12N 48°38' W 002°02'0 0.0
2017-Sep-20 14:00N 48°38' W 002°02'0 0.0
2017-Sep-20 13:16N 48°38' W 002°02'0 0.0
2017-Sep-20 11:38N 48°38' W 002°02'0 0.0
2017-Sep-20 11:16N 48°38' W 002°02'0 0.1
2017-Sep-20 10:52N 48°38' W 002°02'0 0.0
2017-Sep-20 10:19N 48°38' W 002°02'0 0.0
2017-Sep-20 09:55N 48°38' W 002°02'0 0.0
2017-Sep-20 09:28N 48°38' W 002°02'0 0.1
2017-Sep-20 08:42N 48°38' W 002°02'1 3.2
2017-Sep-20 08:25N 48°39' W 002°03'610.8
2017-Sep-20 07:50N 48°43' W 002°10'814.4
2017-Sep-20 07:17N 48°48' W 002°19'714.5
2017-Sep-20 06:48N 48°53' W 002°27'515.2
2017-Sep-20 06:29N 48°57' W 002°32'815.7
2017-Sep-20 05:57N 49°03' W 002°39'1116.2
2017-Sep-20 05:16N 49°09' W 002°53'517.9
2017-Sep-20 05:00N 49°08' W 003°00'918.5
2017-Sep-20 04:30N 49°05' W 003°14'1019.0
2017-Sep-20 04:00N 49°02' W 003°27'918.7
2017-Sep-20 03:30N 48°59' W 003°41'1018.2
2017-Sep-20 02:58N 48°56' W 003°55'817.9
2017-Sep-20 02:30N 48°53' W 004°07'917.7
2017-Sep-20 02:00N 48°50' W 004°20'917.4
2017-Sep-20 01:30N 48°48' W 004°32'917.0
2017-Sep-20 01:00N 48°46' W 004°44'816.6
2017-Sep-20 00:30N 48°43' W 004°56'816.1
2017-Sep-20 00:00N 48°40' W 005°08'815.0
2017-Sep-19 23:30N 48°36' W 005°17'714.9
2017-Sep-19 23:01N 48°30' W 005°24'815.0
2017-Sep-19 22:30N 48°23' W 005°22'814.8
2017-Sep-19 21:58N 48°15' W 005°19'714.9
2017-Sep-19 21:30N 48°08' W 005°16'714.8
2017-Sep-19 21:00N 48°01' W 005°12'815.3
2017-Sep-19 20:30N 47°57' W 005°02'815.8
2017-Sep-19 20:00N 47°54' W 004°52'815.7
2017-Sep-19 19:30N 47°50' W 004°42'815.7
2017-Sep-19 18:59N 47°45' W 004°32'715.6
2017-Sep-19 18:31N 47°41' W 004°22'815.5
2017-Sep-19 18:00N 47°37' W 004°12'815.6
2017-Sep-19 17:30N 47°34' W 004°02'815.7
2017-Sep-19 17:00N 47°30' W 003°52'815.6
2017-Sep-19 16:30N 47°26' W 003°42'815.7
2017-Sep-19 16:00N 47°22' W 003°32'815.5
2017-Sep-19 15:30N 47°18' W 003°22'815.4
2017-Sep-19 15:00N 47°15' W 003°12'815.3
2017-Sep-19 14:30N 47°13' W 003°01'815.1
2017-Sep-19 14:00N 47°10' W 002°50'715.0
2017-Sep-19 13:30N 47°08' W 002°40'714.2
2017-Sep-19 13:00N 47°08' W 002°29'510.9
2017-Sep-19 12:30N 47°08' W 002°21'12 6.3
2017-Sep-19 10:31N 47°18' W 002°09'0 0.0
2017-Sep-19 10:28N 47°18' W 002°09'0 0.0
2017-Sep-19 08:03N 47°18' W 002°09'0 0.0
2017-Sep-19 08:00N 47°18' W 002°09'0 0.0
2017-Sep-19 07:30N 47°18' W 002°09'0 0.0
2017-Sep-19 07:00N 47°18' W 002°09'0 0.0
2017-Sep-19 06:27N 47°18' W 002°09'2 4.9
2017-Sep-19 06:00N 47°16' W 002°11'611.1
2017-Sep-19 05:30N 47°12' W 002°17'611.2
2017-Sep-19 05:00N 47°07' W 002°22'510.3
2017-Sep-19 04:30N 47°04' W 002°27'713.5
2017-Sep-19 04:00N 46°59' W 002°34'1313.3
2017-Sep-19 03:03N 46°46' W 002°33'313.9
2017-Sep-19 02:49N 46°43' W 002°32'1214.6
2017-Sep-19 02:00N 46°32' W 002°25'815.1
2017-Sep-19 01:30N 46°26' W 002°18'714.9
2017-Sep-19 01:00N 46°21' W 002°12'1015.2
2017-Sep-19 00:19N 46°12' W 002°03'515.4
2017-Sep-18 23:59N 46°08' W 001°59'3515.6
2017-Sep-18 21:45N 45°40' W 001°30'415.4
2017-Sep-18 21:30N 45°37' W 001°26'815.0
2017-Sep-18 21:00N 45°39' W 001°16'815.3
2017-Sep-18 20:30N 45°37' W 001°05'714.9
2017-Sep-18 20:00N 45°31' W 000°59'917.4
2017-Sep-18 19:31N 45°24' W 000°51'13 0.8
2017-Sep-18 03:17N 45°12' W 000°44'517.4
2017-Sep-18 02:59N 45°17' W 000°46'916.8
2017-Sep-18 02:28N 45°25' W 000°52'816.3
2017-Sep-18 02:00N 45°31' W 000°59'715.0
2017-Sep-18 01:30N 45°37' W 001°05'714.9
2017-Sep-18 01:00N 45°39' W 001°15'714.7
2017-Sep-18 00:31N 45°35' W 001°24'12115.6
2017-Sep-17 16:45N 43°49' W 002°45'415.2
2017-Sep-17 16:28N 43°45' W 002°49'715.4
2017-Sep-17 16:00N 43°39' W 002°53'815.2
2017-Sep-17 15:30N 43°32' W 002°59'714.4
2017-Sep-17 15:01N 43°26' W 003°04'5 9.3
2017-Sep-17 14:31N 43°21' W 003°02'1 2.3
2017-Sep-17 13:59N 43°20' W 003°02'0 0.0
2017-Sep-17 13:28N 43°20' W 003°02'0 0.0
2017-Sep-17 12:58N 43°20' W 003°02'0 0.0
2017-Sep-17 12:28N 43°20' W 003°02'0 0.0
2017-Sep-17 11:58N 43°20' W 003°02'0 0.0
2017-Sep-17 11:30N 43°20' W 003°02'0 0.0
2017-Sep-17 10:54N 43°20' W 003°02'0 0.0
2017-Sep-17 10:30N 43°20' W 003°02'0 0.0
2017-Sep-17 10:00N 43°20' W 003°02'0 0.0
2017-Sep-17 09:30N 43°20' W 003°02'2 3.4
2017-Sep-17 09:00N 43°22' W 003°03'510.8
2017-Sep-17 08:30N 43°25' W 003°08'714.8
2017-Sep-17 08:00N 43°30' W 003°17'815.4
2017-Sep-17 07:30N 43°33' W 003°27'6215.6
2017-Sep-17 03:32N 43°41' W 004°52'015.6
2017-Sep-17 03:30N 43°41' W 004°52'815.7
2017-Sep-17 03:00N 43°42' W 005°03'815.6
2017-Sep-17 02:30N 43°43' W 005°13'815.6
2017-Sep-17 02:00N 43°43' W 005°24'815.7
2017-Sep-17 01:30N 43°43' W 005°35'815.6
2017-Sep-17 01:00N 43°44' W 005°46'229 6.1
2017-Sep-15 11:28N 46°07' W 001°33'714.3
2017-Sep-15 11:00N 46°07' W 001°23'510.4
2017-Sep-15 10:29N 46°07' W 001°15'3 4.1
2017-Sep-15 09:47N 46°10' W 001°14'0 0.0
2017-Sep-15 09:28N 46°10' W 001°14'0 0.0
2017-Sep-15 08:52N 46°10' W 001°14'0 0.0
2017-Sep-15 08:28N 46°10' W 001°14'0 0.0
2017-Sep-15 07:46N 46°10' W 001°14'0 0.0
2017-Sep-15 07:21N 46°10' W 001°14'0 0.0
2017-Sep-15 06:57N 46°10' W 001°14'0 0.0
2017-Sep-15 06:21N 46°10' W 001°14'0 0.0
2017-Sep-15 05:54N 46°10' W 001°14'0 0.0
2017-Sep-15 05:30N 46°10' W 001°14'0 0.0
2017-Sep-15 05:00N 46°10' W 001°14'1 1.2
2017-Sep-15 04:30N 46°09' W 001°15'4 8.6
2017-Sep-15 04:00N 46°06' W 001°19'612.0
2017-Sep-15 03:30N 46°07' W 001°28'713.7
2017-Sep-15 02:59N 46°08' W 001°38'814.1
2017-Sep-15 02:25N 46°11' W 001°49'614.7
2017-Sep-15 02:00N 46°15' W 001°56'714.5
2017-Sep-15 01:30N 46°20' W 002°03'714.5
2017-Sep-15 01:01N 46°24' W 002°12'814.9
2017-Sep-15 00:27N 46°29' W 002°22'6015.1
2017-Sep-14 20:28N 47°05' W 003°32'714.8
2017-Sep-14 20:00N 47°09' W 003°39'714.7
2017-Sep-14 19:30N 47°14' W 003°48'714.9
2017-Sep-14 19:01N 47°18' W 003°57'814.7
2017-Sep-14 18:27N 47°23' W 004°07'1014.4
2017-Sep-14 17:47N 47°29' W 004°18'2813.8
2017-Sep-14 15:44N 47°47' W 004°50'314.0
2017-Sep-14 15:30N 47°50' W 004°53'714.1
2017-Sep-14 15:00N 47°55' W 004°60'4 7.0
2017-Sep-14 14:30N 47°53' W 005°04'4 9.0
2017-Sep-14 14:00N 47°56' W 005°10'714.6
2017-Sep-14 13:30N 48°01' W 005°17'1514.0
2017-Sep-14 12:26N 48°16' W 005°20'714.2
2017-Sep-14 11:56N 48°23' W 005°22'614.1
2017-Sep-14 11:30N 48°29' W 005°24'612.1
2017-Sep-14 10:59N 48°35' W 005°20'612.2
2017-Sep-14 10:30N 48°39' W 005°14'612.4
2017-Sep-14 10:00N 48°44' W 005°08'612.2
2017-Sep-14 09:30N 48°49' W 005°03'6312.2
2017-Sep-14 04:22N 49°35' W 003°57'513.3
2017-Sep-14 04:00N 49°37' W 003°51'713.5
2017-Sep-14 03:30N 49°40' W 003°41'713.3
2017-Sep-14 03:00N 49°43' W 003°33'613.0
2017-Sep-14 02:30N 49°47' W 003°24'612.6
2017-Sep-14 02:00N 49°50' W 003°15'612.5
2017-Sep-14 01:30N 49°53' W 003°07'612.4
2017-Sep-14 01:00N 49°56' W 002°58'612.0
2017-Sep-14 00:30N 49°58' W 002°50'611.8
2017-Sep-13 23:59N 49°60' W 002°41'2812.2
2017-Sep-13 21:39N 50°02' W 001°56'213.5
2017-Sep-13 21:30N 50°01' W 001°54'713.9
2017-Sep-13 21:00N 49°57' W 001°46'714.6
2017-Sep-13 20:30N 49°53' W 001°36'815.8
2017-Sep-13 20:00N 49°51' W 001°24'816.5
2017-Sep-13 19:30N 49°48' W 001°12'816.6
2017-Sep-13 19:01N 49°45' W 001°00'1016.0
2017-Sep-13 18:24N 49°41' W 000°46'1415.1
2017-Sep-13 17:30N 49°35' W 000°27'714.5
2017-Sep-13 17:00N 49°33' W 000°17'713.9
2017-Sep-13 16:30N 49°30' W 000°07'510.8
2017-Sep-13 16:01N 49°28' E 000°00'611.1
2017-Sep-13 15:30N 49°26' E 000°09'4 7.0
2017-Sep-13 14:58N 49°26' E 000°14'0 0.0
2017-Sep-13 14:28N 49°26' E 000°14'0 0.0
2017-Sep-13 13:58N 49°26' E 000°14'0 0.0
2017-Sep-13 13:28N 49°26' E 000°14'0 0.0
2017-Sep-13 12:55N 49°26' E 000°14'0 0.0
2017-Sep-13 12:30N 49°26' E 000°14'0 0.0
2017-Sep-13 12:00N 49°26' E 000°14'0 0.0
2017-Sep-13 11:30N 49°26' E 000°14'0 0.0
2017-Sep-13 11:00N 49°26' E 000°14'0 0.0
2017-Sep-13 10:29N 49°26' E 000°14'0 0.0
2017-Sep-13 09:59N 49°26' E 000°14'0 0.0
2017-Sep-13 09:29N 49°26' E 000°14'0 0.0
2017-Sep-13 08:59N 49°26' E 000°14'0 0.0
2017-Sep-13 08:29N 49°26' E 000°14'0 0.0
2017-Sep-13 07:58N 49°26' E 000°14'0 0.0
2017-Sep-13 07:28N 49°26' E 000°14'0 0.0
2017-Sep-13 06:58N 49°26' E 000°14'0 0.0
2017-Sep-13 06:28N 49°26' E 000°14'0 0.0
2017-Sep-13 06:01N 49°26' E 000°14'0 0.0
2017-Sep-13 05:27N 49°26' E 000°14'1 2.4
2017-Sep-13 05:00N 49°26' E 000°13'5 9.9
2017-Sep-13 04:30N 49°26' E 000°05'510.9
2017-Sep-13 04:00N 49°28' W 000°03'5 9.2
2017-Sep-13 03:30N 49°30' W 000°09'5 9.6
2017-Sep-13 03:00N 49°35' W 000°11'510.6
2017-Sep-13 02:30N 49°40' W 000°11'611.3
2017-Sep-13 02:00N 49°46' W 000°12'510.3
2017-Sep-13 01:30N 49°51' W 000°11'31 9.0
2017-Sep-12 22:02N 50°22' W 000°06'010.0
2017-Sep-12 22:00N 50°22' W 000°06'5 9.7
2017-Sep-12 21:30N 50°27' W 000°03'510.1
2017-Sep-12 21:00N 50°29' E 000°04'713.2
2017-Sep-12 20:30N 50°31' E 000°14'714.6
2017-Sep-12 20:00N 50°33' E 000°25'714.7
2017-Sep-12 19:30N 50°36' E 000°36'714.6
2017-Sep-12 19:00N 50°40' E 000°46'714.3
2017-Sep-12 18:30N 50°44' E 000°55'1013.7
2017-Sep-12 17:46N 50°49' E 001°08'313.1
2017-Sep-12 17:30N 50°51' E 001°13'612.5
2017-Sep-12 16:59N 50°56' E 001°20'611.8
2017-Sep-12 16:30N 51°00' E 001°26'611.7
2017-Sep-12 16:00N 51°04' E 001°32'611.6
2017-Sep-12 15:30N 51°08' E 001°39'612.2
2017-Sep-12 15:00N 51°13' E 001°45'713.3
2017-Sep-12 14:30N 51°19' E 001°51'714.4
2017-Sep-12 14:01N 51°25' E 001°57'815.8
2017-Sep-12 13:30N 51°32' E 002°04'816.2
2017-Sep-12 13:00N 51°38' E 002°12'10414.0
2017-Sep-12 05:35N 52°58' E 004°00'112.5
2017-Sep-12 05:30N 52°58' E 004°02'4513.6
2017-Sep-12 02:09N 53°32' E 004°53'214.2
2017-Sep-12 02:00N 53°33' E 004°56'714.2
2017-Sep-12 01:31N 53°35' E 005°07'  
Track history (hours):
 
Tides and Currents Weather Stations Pressure Air Temp Water Temp Dewpoint Dewpoint Depression Visibility Wind Speed Wind Dir Waves Ship Positions

Astor

Operator: Passat Ship Management Ltd

Last reported at 2017-Sep-21 23:25 UTC. Time now 2017-Sep-22 06:14 UTC.
Position N 50°21' E 000°17'.

Length 177 m; draft 6.2 m.

Type: Ship. MMSI: 308214000.

Date/timePositionNaut miles runAvg speedWind from/ knotsBaromVisibWave heightAir tempDewpointWater temp
2017-Sep-21 23:25N 50°21' E 000°17'1717.4
2017-Sep-21 22:26N 50°15' W 000°08'106 5.7
2017-Sep-21 03:45N 49°24' W 002°32'413.8
2017-Sep-21 03:27N 49°22' W 002°37'813.4
2017-Sep-21 02:51N 49°21' W 002°50'512.1
2017-Sep-21 02:28N 49°22' W 002°57'511.7
2017-Sep-21 02:00N 49°22' W 003°05'611.5
2017-Sep-21 01:27N 49°21' W 003°15'511.5
2017-Sep-21 01:00N 49°19' W 003°22'611.2
2017-Sep-21 00:29N 49°16' W 003°30'6 8.0
2017-Sep-20 23:44N 49°10' W 003°27'314.3
2017-Sep-20 23:30N 49°11' W 003°22'714.4
2017-Sep-20 23:00N 49°11' W 003°11'714.5
2017-Sep-20 22:31N 49°11' W 003°00'4013.3
2017-Sep-20 19:31N 48°45' W 002°15'013.2
2017-Sep-20 19:29N 48°45' W 002°14'10 2.3
2017-Sep-20 15:12N 48°38' W 002°02'0 0.0
2017-Sep-20 14:00N 48°38' W 002°02'0 0.0
2017-Sep-20 13:16N 48°38' W 002°02'0 0.0
2017-Sep-20 11:38N 48°38' W 002°02'0 0.0
2017-Sep-20 11:16N 48°38' W 002°02'0 0.1
2017-Sep-20 10:52N 48°38' W 002°02'0 0.0
2017-Sep-20 10:19N 48°38' W 002°02'0 0.0
2017-Sep-20 09:55N 48°38' W 002°02'0 0.0
2017-Sep-20 09:28N 48°38' W 002°02'0 0.1
2017-Sep-20 08:42N 48°38' W 002°02'1 3.2
2017-Sep-20 08:25N 48°39' W 002°03'610.8
2017-Sep-20 07:50N 48°43' W 002°10'814.4
2017-Sep-20 07:17N 48°48' W 002°19'714.5
2017-Sep-20 06:48N 48°53' W 002°27'515.2
2017-Sep-20 06:29N 48°57' W 002°32'815.7
2017-Sep-20 05:57N 49°03' W 002°39'1116.2
2017-Sep-20 05:16N 49°09' W 002°53'517.9
2017-Sep-20 05:00N 49°08' W 003°00'918.5
2017-Sep-20 04:30N 49°05' W 003°14'1019.0
2017-Sep-20 04:00N 49°02' W 003°27'918.7
2017-Sep-20 03:30N 48°59' W 003°41'1018.2
2017-Sep-20 02:58N 48°56' W 003°55'817.9
2017-Sep-20 02:30N 48°53' W 004°07'917.7
2017-Sep-20 02:00N 48°50' W 004°20'917.4
2017-Sep-20 01:30N 48°48' W 004°32'917.0
2017-Sep-20 01:00N 48°46' W 004°44'816.6
2017-Sep-20 00:30N 48°43' W 004°56'816.1
2017-Sep-20 00:00N 48°40' W 005°08'815.0
2017-Sep-19 23:30N 48°36' W 005°17'714.9
2017-Sep-19 23:01N 48°30' W 005°24'815.0
2017-Sep-19 22:30N 48°23' W 005°22'814.8
2017-Sep-19 21:58N 48°15' W 005°19'714.9
2017-Sep-19 21:30N 48°08' W 005°16'714.8
2017-Sep-19 21:00N 48°01' W 005°12'815.3
2017-Sep-19 20:30N 47°57' W 005°02'815.8
2017-Sep-19 20:00N 47°54' W 004°52'815.7
2017-Sep-19 19:30N 47°50' W 004°42'815.7
2017-Sep-19 18:59N 47°45' W 004°32'715.6
2017-Sep-19 18:31N 47°41' W 004°22'815.5
2017-Sep-19 18:00N 47°37' W 004°12'815.6
2017-Sep-19 17:30N 47°34' W 004°02'815.7
2017-Sep-19 17:00N 47°30' W 003°52'815.6
2017-Sep-19 16:30N 47°26' W 003°42'815.7
2017-Sep-19 16:00N 47°22' W 003°32'815.5
2017-Sep-19 15:30N 47°18' W 003°22'815.4
2017-Sep-19 15:00N 47°15' W 003°12'815.3
2017-Sep-19 14:30N 47°13' W 003°01'815.1
2017-Sep-19 14:00N 47°10' W 002°50'715.0
2017-Sep-19 13:30N 47°08' W 002°40'714.2
2017-Sep-19 13:00N 47°08' W 002°29'510.9
2017-Sep-19 12:30N 47°08' W 002°21'12 6.3
2017-Sep-19 10:31N 47°18' W 002°09'0 0.0
2017-Sep-19 10:28N 47°18' W 002°09'0 0.0
2017-Sep-19 08:03N 47°18' W 002°09'0 0.0
2017-Sep-19 08:00N 47°18' W 002°09'0 0.0
2017-Sep-19 07:30N 47°18' W 002°09'0 0.0
2017-Sep-19 07:00N 47°18' W 002°09'0 0.0
2017-Sep-19 06:27N 47°18' W 002°09'2 4.9
2017-Sep-19 06:00N 47°16' W 002°11'611.1
2017-Sep-19 05:30N 47°12' W 002°17'611.2
2017-Sep-19 05:00N 47°07' W 002°22'510.3
2017-Sep-19 04:30N 47°04' W 002°27'713.5
2017-Sep-19 04:00N 46°59' W 002°34'1313.3
2017-Sep-19 03:03N 46°46' W 002°33'313.9
2017-Sep-19 02:49N 46°43' W 002°32'1214.6
2017-Sep-19 02:00N 46°32' W 002°25'815.1
2017-Sep-19 01:30N 46°26' W 002°18'714.9
2017-Sep-19 01:00N 46°21' W 002°12'1015.2
2017-Sep-19 00:19N 46°12' W 002°03'515.4
2017-Sep-18 23:59N 46°08' W 001°59'3515.6
2017-Sep-18 21:45N 45°40' W 001°30'415.4
2017-Sep-18 21:30N 45°37' W 001°26'815.0
2017-Sep-18 21:00N 45°39' W 001°16'815.3
2017-Sep-18 20:30N 45°37' W 001°05'714.9
2017-Sep-18 20:00N 45°31' W 000°59'917.4
2017-Sep-18 19:31N 45°24' W 000°51'13 0.8
2017-Sep-18 03:17N 45°12' W 000°44'517.4
2017-Sep-18 02:59N 45°17' W 000°46'916.8
2017-Sep-18 02:28N 45°25' W 000°52'816.3
2017-Sep-18 02:00N 45°31' W 000°59'715.0
2017-Sep-18 01:30N 45°37' W 001°05'714.9
2017-Sep-18 01:00N 45°39' W 001°15'714.7
2017-Sep-18 00:31N 45°35' W 001°24'12115.6
2017-Sep-17 16:45N 43°49' W 002°45'415.2
2017-Sep-17 16:28N 43°45' W 002°49'715.4
2017-Sep-17 16:00N 43°39' W 002°53'815.2
2017-Sep-17 15:30N 43°32' W 002°59'714.4
2017-Sep-17 15:01N 43°26' W 003°04'5 9.3
2017-Sep-17 14:31N 43°21' W 003°02'1 2.3
2017-Sep-17 13:59N 43°20' W 003°02'0 0.0
2017-Sep-17 13:28N 43°20' W 003°02'0 0.0
2017-Sep-17 12:58N 43°20' W 003°02'0 0.0
2017-Sep-17 12:28N 43°20' W 003°02'0 0.0
2017-Sep-17 11:58N 43°20' W 003°02'0 0.0
2017-Sep-17 11:30N 43°20' W 003°02'0 0.0
2017-Sep-17 10:54N 43°20' W 003°02'0 0.0
2017-Sep-17 10:30N 43°20' W 003°02'0 0.0
2017-Sep-17 10:00N 43°20' W 003°02'0 0.0
2017-Sep-17 09:30N 43°20' W 003°02'2 3.4
2017-Sep-17 09:00N 43°22' W 003°03'510.8
2017-Sep-17 08:30N 43°25' W 003°08'714.8
2017-Sep-17 08:00N 43°30' W 003°17'815.4
2017-Sep-17 07:30N 43°33' W 003°27'6215.6
2017-Sep-17 03:32N 43°41' W 004°52'015.6
2017-Sep-17 03:30N 43°41' W 004°52'815.7
2017-Sep-17 03:00N 43°42' W 005°03'815.6
2017-Sep-17 02:30N 43°43' W 005°13'815.6
2017-Sep-17 02:00N 43°43' W 005°24'815.7
2017-Sep-17 01:30N 43°43' W 005°35'815.6
2017-Sep-17 01:00N 43°44' W 005°46'229 6.1
2017-Sep-15 11:28N 46°07' W 001°33'714.3
2017-Sep-15 11:00N 46°07' W 001°23'510.4
2017-Sep-15 10:29N 46°07' W 001°15'3 4.1
2017-Sep-15 09:47N 46°10' W 001°14'0 0.0
2017-Sep-15 09:28N 46°10' W 001°14'0 0.0
2017-Sep-15 08:52N 46°10' W 001°14'0 0.0
2017-Sep-15 08:28N 46°10' W 001°14'0 0.0
2017-Sep-15 07:46N 46°10' W 001°14'0 0.0
2017-Sep-15 07:21N 46°10' W 001°14'0 0.0
2017-Sep-15 06:57N 46°10' W 001°14'0 0.0
2017-Sep-15 06:21N 46°10' W 001°14'0 0.0
2017-Sep-15 05:54N 46°10' W 001°14'0 0.0
2017-Sep-15 05:30N 46°10' W 001°14'0 0.0
2017-Sep-15 05:00N 46°10' W 001°14'1 1.2
2017-Sep-15 04:30N 46°09' W 001°15'4 8.6
2017-Sep-15 04:00N 46°06' W 001°19'612.0
2017-Sep-15 03:30N 46°07' W 001°28'713.7
2017-Sep-15 02:59N 46°08' W 001°38'814.1
2017-Sep-15 02:25N 46°11' W 001°49'614.7
2017-Sep-15 02:00N 46°15' W 001°56'714.5
2017-Sep-15 01:30N 46°20' W 002°03'714.5
2017-Sep-15 01:01N 46°24' W 002°12'814.9
2017-Sep-15 00:27N 46°29' W 002°22'6015.1
2017-Sep-14 20:28N 47°05' W 003°32'714.8
2017-Sep-14 20:00N 47°09' W 003°39'714.7
2017-Sep-14 19:30N 47°14' W 003°48'714.9
2017-Sep-14 19:01N 47°18' W 003°57'814.7
2017-Sep-14 18:27N 47°23' W 004°07'1014.4
2017-Sep-14 17:47N 47°29' W 004°18'2813.8
2017-Sep-14 15:44N 47°47' W 004°50'314.0
2017-Sep-14 15:30N 47°50' W 004°53'714.1
2017-Sep-14 15:00N 47°55' W 004°60'4 7.0
2017-Sep-14 14:30N 47°53' W 005°04'4 9.0
2017-Sep-14 14:00N 47°56' W 005°10'714.6
2017-Sep-14 13:30N 48°01' W 005°17'1514.0
2017-Sep-14 12:26N 48°16' W 005°20'714.2
2017-Sep-14 11:56N 48°23' W 005°22'614.1
2017-Sep-14 11:30N 48°29' W 005°24'612.1
2017-Sep-14 10:59N 48°35' W 005°20'612.2
2017-Sep-14 10:30N 48°39' W 005°14'612.4
2017-Sep-14 10:00N 48°44' W 005°08'612.2
2017-Sep-14 09:30N 48°49' W 005°03'6312.2
2017-Sep-14 04:22N 49°35' W 003°57'513.3
2017-Sep-14 04:00N 49°37' W 003°51'713.5
2017-Sep-14 03:30N 49°40' W 003°41'713.3
2017-Sep-14 03:00N 49°43' W 003°33'613.0
2017-Sep-14 02:30N 49°47' W 003°24'612.6
2017-Sep-14 02:00N 49°50' W 003°15'612.5
2017-Sep-14 01:30N 49°53' W 003°07'612.4
2017-Sep-14 01:00N 49°56' W 002°58'612.0
2017-Sep-14 00:30N 49°58' W 002°50'611.8
2017-Sep-13 23:59N 49°60' W 002°41'2812.2
2017-Sep-13 21:39N 50°02' W 001°56'213.5
2017-Sep-13 21:30N 50°01' W 001°54'713.9
2017-Sep-13 21:00N 49°57' W 001°46'714.6
2017-Sep-13 20:30N 49°53' W 001°36'815.8
2017-Sep-13 20:00N 49°51' W 001°24'816.5
2017-Sep-13 19:30N 49°48' W 001°12'816.6
2017-Sep-13 19:01N 49°45' W 001°00'1016.0
2017-Sep-13 18:24N 49°41' W 000°46'1415.1
2017-Sep-13 17:30N 49°35' W 000°27'714.5
2017-Sep-13 17:00N 49°33' W 000°17'713.9
2017-Sep-13 16:30N 49°30' W 000°07'510.8
2017-Sep-13 16:01N 49°28' E 000°00'611.1
2017-Sep-13 15:30N 49°26' E 000°09'4 7.0
2017-Sep-13 14:58N 49°26' E 000°14'0 0.0
2017-Sep-13 14:28N 49°26' E 000°14'0 0.0
2017-Sep-13 13:58N 49°26' E 000°14'0 0.0
2017-Sep-13 13:28N 49°26' E 000°14'0 0.0
2017-Sep-13 12:55N 49°26' E 000°14'0 0.0
2017-Sep-13 12:30N 49°26' E 000°14'0 0.0
2017-Sep-13 12:00N 49°26' E 000°14'0 0.0
2017-Sep-13 11:30N 49°26' E 000°14'0 0.0
2017-Sep-13 11:00N 49°26' E 000°14'0 0.0
2017-Sep-13 10:29N 49°26' E 000°14'0 0.0
2017-Sep-13 09:59N 49°26' E 000°14'0 0.0
2017-Sep-13 09:29N 49°26' E 000°14'0 0.0
2017-Sep-13 08:59N 49°26' E 000°14'0 0.0
2017-Sep-13 08:29N 49°26' E 000°14'0 0.0
2017-Sep-13 07:58N 49°26' E 000°14'0 0.0
2017-Sep-13 07:28N 49°26' E 000°14'0 0.0
2017-Sep-13 06:58N 49°26' E 000°14'0 0.0
2017-Sep-13 06:28N 49°26' E 000°14'0 0.0
2017-Sep-13 06:01N 49°26' E 000°14'0 0.0
2017-Sep-13 05:27N 49°26' E 000°14'1 2.4
2017-Sep-13 05:00N 49°26' E 000°13'5 9.9
2017-Sep-13 04:30N 49°26' E 000°05'510.9
2017-Sep-13 04:00N 49°28' W 000°03'5 9.2
2017-Sep-13 03:30N 49°30' W 000°09'5 9.6
2017-Sep-13 03:00N 49°35' W 000°11'510.6
2017-Sep-13 02:30N 49°40' W 000°11'611.3
2017-Sep-13 02:00N 49°46' W 000°12'510.3
2017-Sep-13 01:30N 49°51' W 000°11'31 9.0
2017-Sep-12 22:02N 50°22' W 000°06'010.0
2017-Sep-12 22:00N 50°22' W 000°06'5 9.7
2017-Sep-12 21:30N 50°27' W 000°03'510.1
2017-Sep-12 21:00N 50°29' E 000°04'713.2
2017-Sep-12 20:30N 50°31' E 000°14'714.6
2017-Sep-12 20:00N 50°33' E 000°25'714.7
2017-Sep-12 19:30N 50°36' E 000°36'714.6
2017-Sep-12 19:00N 50°40' E 000°46'714.3
2017-Sep-12 18:30N 50°44' E 000°55'1013.7
2017-Sep-12 17:46N 50°49' E 001°08'313.1
2017-Sep-12 17:30N 50°51' E 001°13'612.5
2017-Sep-12 16:59N 50°56' E 001°20'611.8
2017-Sep-12 16:30N 51°00' E 001°26'611.7
2017-Sep-12 16:00N 51°04' E 001°32'611.6
2017-Sep-12 15:30N 51°08' E 001°39'612.2
2017-Sep-12 15:00N 51°13' E 001°45'713.3
2017-Sep-12 14:30N 51°19' E 001°51'714.4
2017-Sep-12 14:01N 51°25' E 001°57'815.8
2017-Sep-12 13:30N 51°32' E 002°04'816.2
2017-Sep-12 13:00N 51°38' E 002°12'10414.0
2017-Sep-12 05:35N 52°58' E 004°00'112.5
2017-Sep-12 05:30N 52°58' E 004°02'4513.6
2017-Sep-12 02:09N 53°32' E 004°53'214.2
2017-Sep-12 02:00N 53°33' E 004°56'714.2
2017-Sep-12 01:31N 53°35' E 005°07'  

Dump ship's entire track history